sensor_id;sensor_type;location;lat;lon;timestamp;pressure;altitude;pressure_sealevel;temperature;humidity
51617;BME280;37697;52.588;13.394;2023-04-09T00:02:54;102202.60;;;3.84;70.78
51617;BME280;37697;52.588;13.394;2023-04-09T00:08:00;102206.63;;;3.77;70.94
51617;BME280;37697;52.588;13.394;2023-04-09T00:13:05;102206.77;;;3.69;71.10
51617;BME280;37697;52.588;13.394;2023-04-09T00:18:10;102206.15;;;3.58;71.42
51617;BME280;37697;52.588;13.394;2023-04-09T00:23:16;102206.70;;;3.49;71.32
51617;BME280;37697;52.588;13.394;2023-04-09T00:28:21;102204.71;;;3.42;71.44
51617;BME280;37697;52.588;13.394;2023-04-09T00:33:27;102201.36;;;3.35;71.54
51617;BME280;37697;52.588;13.394;2023-04-09T00:38:32;102195.25;;;3.27;71.80
51617;BME280;37697;52.588;13.394;2023-04-09T00:43:37;102195.48;;;3.18;71.73
51617;BME280;37697;52.588;13.394;2023-04-09T00:48:43;102193.31;;;3.05;71.95
51617;BME280;37697;52.588;13.394;2023-04-09T00:53:49;102191.05;;;2.98;72.00
51617;BME280;37697;52.588;13.394;2023-04-09T00:58:54;102189.83;;;2.91;72.03
51617;BME280;37697;52.588;13.394;2023-04-09T01:04:03;102186.20;;;2.81;72.05
51617;BME280;37697;52.588;13.394;2023-04-09T01:09:13;102187.54;;;2.71;72.21
51617;BME280;37697;52.588;13.394;2023-04-09T01:14:26;102187.29;;;2.65;72.40
51617;BME280;37697;52.588;13.394;2023-04-09T01:19:45;102185.75;;;2.53;72.36
51617;BME280;37697;52.588;13.394;2023-04-09T01:25:02;102184.65;;;2.45;72.54
51617;BME280;37697;52.588;13.394;2023-04-09T01:30:09;102187.84;;;2.36;72.70
51617;BME280;37697;52.588;13.394;2023-04-09T01:35:17;102186.13;;;2.17;72.55
51617;BME280;37697;52.588;13.394;2023-04-09T01:40:23;102186.86;;;2.05;73.09
51617;BME280;37697;52.588;13.394;2023-04-09T01:45:28;102186.36;;;1.97;73.22
51617;BME280;37697;52.588;13.394;2023-04-09T01:50:33;102196.06;;;1.94;73.40
51617;BME280;37697;52.588;13.394;2023-04-09T01:55:39;102200.38;;;1.79;73.36
51617;BME280;37697;52.588;13.394;2023-04-09T02:00:47;102199.79;;;1.70;73.86
51617;BME280;37697;52.588;13.394;2023-04-09T02:05:56;102206.21;;;1.69;74.07
51617;BME280;37697;52.588;13.394;2023-04-09T02:11:05;102205.86;;;1.53;74.11
51617;BME280;37697;52.588;13.394;2023-04-09T02:16:14;102216.95;;;1.37;74.27
51617;BME280;37697;52.588;13.394;2023-04-09T02:21:20;102214.73;;;1.36;74.64
51617;BME280;37697;52.588;13.394;2023-04-09T02:26:26;102209.06;;;1.36;74.86
51617;BME280;37697;52.588;13.394;2023-04-09T02:31:31;102218.16;;;1.34;74.67
51617;BME280;37697;52.588;13.394;2023-04-09T02:36:37;102219.40;;;1.22;74.62
51617;BME280;37697;52.588;13.394;2023-04-09T02:41:42;102218.84;;;1.20;74.94
51617;BME280;37697;52.588;13.394;2023-04-09T02:46:49;102217.71;;;1.20;75.51
51617;BME280;37697;52.588;13.394;2023-04-09T02:51:54;102219.73;;;1.25;75.78
51617;BME280;37697;52.588;13.394;2023-04-09T02:57:00;102221.24;;;1.36;76.65
51617;BME280;37697;52.588;13.394;2023-04-09T03:02:05;102218.31;;;1.45;77.83
51617;BME280;37697;52.588;13.394;2023-04-09T03:07:11;102219.49;;;1.58;78.59
51617;BME280;37697;52.588;13.394;2023-04-09T03:12:16;102219.89;;;1.71;79.27
51617;BME280;37697;52.588;13.394;2023-04-09T03:17:21;102207.52;;;1.81;79.69
51617;BME280;37697;52.588;13.394;2023-04-09T03:22:30;102210.04;;;1.87;79.95
51617;BME280;37697;52.588;13.394;2023-04-09T03:27:39;102204.14;;;1.94;80.13
51617;BME280;37697;52.588;13.394;2023-04-09T03:32:44;102202.50;;;1.99;80.60
51617;BME280;37697;52.588;13.394;2023-04-09T03:37:51;102195.38;;;2.06;80.57
51617;BME280;37697;52.588;13.394;2023-04-09T03:42:56;102195.67;;;2.14;80.77
51617;BME280;37697;52.588;13.394;2023-04-09T03:48:02;102195.08;;;2.20;80.90
51617;BME280;37697;52.588;13.394;2023-04-09T03:53:07;102197.66;;;2.25;81.05
51617;BME280;37697;52.588;13.394;2023-04-09T03:58:13;102197.48;;;2.31;81.10
51617;BME280;37697;52.588;13.394;2023-04-09T04:03:18;102199.10;;;2.36;81.38
51617;BME280;37697;52.588;13.394;2023-04-09T04:08:24;102198.91;;;2.43;81.43
51617;BME280;37697;52.588;13.394;2023-04-09T04:13:29;102204.83;;;2.49;81.62
51617;BME280;37697;52.588;13.394;2023-04-09T04:18:35;102207.79;;;2.55;81.72
51617;BME280;37697;52.588;13.394;2023-04-09T04:23:40;102206.53;;;2.58;81.97
51617;BME280;37697;52.588;13.394;2023-04-09T04:28:46;102204.92;;;2.66;82.13
51617;BME280;37697;52.588;13.394;2023-04-09T04:33:51;102206.55;;;2.76;82.33
51617;BME280;37697;52.588;13.394;2023-04-09T04:38:57;102213.55;;;2.86;82.52
51617;BME280;37697;52.588;13.394;2023-04-09T04:44:02;102208.74;;;2.93;82.81
51617;BME280;37697;52.588;13.394;2023-04-09T04:49:07;102217.75;;;3.01;82.89
51617;BME280;37697;52.588;13.394;2023-04-09T04:54:13;102213.27;;;3.09;83.02
51617;BME280;37697;52.588;13.394;2023-04-09T04:59:18;102217.30;;;3.16;83.39
51617;BME280;37697;52.588;13.394;2023-04-09T05:04:23;102219.48;;;3.24;83.50
51617;BME280;37697;52.588;13.394;2023-04-09T05:09:29;102222.86;;;3.32;83.53
51617;BME280;37697;52.588;13.394;2023-04-09T05:14:34;102219.92;;;3.40;83.75
51617;BME280;37697;52.588;13.394;2023-04-09T05:19:40;102217.79;;;3.48;84.00
51617;BME280;37697;52.588;13.394;2023-04-09T05:24:45;102218.86;;;3.56;84.16
51617;BME280;37697;52.588;13.394;2023-04-09T05:29:51;102219.41;;;3.66;84.53
51617;BME280;37697;52.588;13.394;2023-04-09T05:34:56;102223.96;;;3.75;84.50
51617;BME280;37697;52.588;13.394;2023-04-09T05:40:02;102225.26;;;3.87;84.69
51617;BME280;37697;52.588;13.394;2023-04-09T05:45:09;102223.58;;;3.94;85.00
51617;BME280;37697;52.588;13.394;2023-04-09T05:50:15;102225.58;;;3.96;84.87
51617;BME280;37697;52.588;13.394;2023-04-09T05:55:20;102233.73;;;4.01;85.21
51617;BME280;37697;52.588;13.394;2023-04-09T06:00:26;102233.70;;;4.05;85.13
51617;BME280;37697;52.588;13.394;2023-04-09T06:05:31;102236.02;;;4.09;85.44
51617;BME280;37697;52.588;13.394;2023-04-09T06:10:37;102235.86;;;4.12;85.44
51617;BME280;37697;52.588;13.394;2023-04-09T06:15:45;102232.64;;;4.16;85.42
51617;BME280;37697;52.588;13.394;2023-04-09T06:20:50;102234.88;;;4.23;85.77
51617;BME280;37697;52.588;13.394;2023-04-09T06:26:05;102233.51;;;4.27;85.62
51617;BME280;37697;52.588;13.394;2023-04-09T06:31:10;102242.77;;;4.30;85.59
51617;BME280;37697;52.588;13.394;2023-04-09T06:36:16;102241.78;;;4.29;85.60
51617;BME280;37697;52.588;13.394;2023-04-09T06:41:22;102246.55;;;4.35;85.84
51617;BME280;37697;52.588;13.394;2023-04-09T06:46:28;102245.66;;;4.36;85.77
51617;BME280;37697;52.588;13.394;2023-04-09T06:51:33;102246.70;;;4.36;85.88
51617;BME280;37697;52.588;13.394;2023-04-09T06:56:38;102249.56;;;4.42;86.20
51617;BME280;37697;52.588;13.394;2023-04-09T07:01:44;102254.35;;;4.50;86.65
51617;BME280;37697;52.588;13.394;2023-04-09T07:06:51;102258.76;;;4.57;86.27
51617;BME280;37697;52.588;13.394;2023-04-09T07:11:59;102265.11;;;4.64;86.28
51617;BME280;37697;52.588;13.394;2023-04-09T07:17:04;102263.80;;;4.65;85.91
51617;BME280;37697;52.588;13.394;2023-04-09T07:22:10;102263.81;;;4.68;86.17
51617;BME280;37697;52.588;13.394;2023-04-09T07:27:15;102266.48;;;4.76;86.71
51617;BME280;37697;52.588;13.394;2023-04-09T07:32:21;102267.34;;;4.83;86.60
51617;BME280;37697;52.588;13.394;2023-04-09T07:37:26;102270.23;;;4.87;86.24
51617;BME280;37697;52.588;13.394;2023-04-09T07:42:31;102274.56;;;4.91;86.30
51617;BME280;37697;52.588;13.394;2023-04-09T07:47:37;102269.51;;;4.96;86.12
51617;BME280;37697;52.588;13.394;2023-04-09T07:52:43;102268.48;;;5.00;86.19
51617;BME280;37697;52.588;13.394;2023-04-09T07:57:48;102272.81;;;5.06;86.29
51617;BME280;37697;52.588;13.394;2023-04-09T08:02:56;102276.03;;;5.12;86.07
51617;BME280;37697;52.588;13.394;2023-04-09T08:08:02;102283.77;;;5.21;86.01
51617;BME280;37697;52.588;13.394;2023-04-09T08:13:07;102283.42;;;5.32;86.49
51617;BME280;37697;52.588;13.394;2023-04-09T08:18:16;102284.48;;;5.44;86.52
51617;BME280;37697;52.588;13.394;2023-04-09T08:23:21;102291.95;;;5.51;86.31
51617;BME280;37697;52.588;13.394;2023-04-09T08:28:27;102295.98;;;5.51;85.88
51617;BME280;37697;52.588;13.394;2023-04-09T08:33:32;102293.33;;;5.46;85.57
51617;BME280;37697;52.588;13.394;2023-04-09T08:38:38;102293.11;;;5.42;85.59
51617;BME280;37697;52.588;13.394;2023-04-09T08:43:44;102291.75;;;5.48;86.07
51617;BME280;37697;52.588;13.394;2023-04-09T09:16:34;102286.82;;;6.23;85.35
51617;BME280;37697;52.588;13.394;2023-04-09T09:44:33;102287.45;;;6.70;84.62
51617;BME280;37697;52.588;13.394;2023-04-09T09:49:38;102286.87;;;6.67;84.43
51617;BME280;37697;52.588;13.394;2023-04-09T09:54:47;102284.26;;;6.76;84.49
51617;BME280;37697;52.588;13.394;2023-04-09T09:59:59;102280.50;;;6.84;84.17
51617;BME280;37697;52.588;13.394;2023-04-09T10:05:06;102272.98;;;6.86;83.79
51617;BME280;37697;52.588;13.394;2023-04-09T10:10:12;102271.26;;;6.95;83.89
51617;BME280;37697;52.588;13.394;2023-04-09T10:15:18;102271.55;;;7.09;84.15
51617;BME280;37697;52.588;13.394;2023-04-09T10:20:26;102271.48;;;7.13;83.35
51617;BME280;37697;52.588;13.394;2023-04-09T10:25:33;102267.19;;;7.18;83.01
51617;BME280;37697;52.588;13.394;2023-04-09T10:30:39;102266.19;;;7.32;83.35
51617;BME280;37697;52.588;13.394;2023-04-09T10:35:46;102267.98;;;7.59;83.22
51617;BME280;37697;52.588;13.394;2023-04-09T10:40:52;102267.92;;;7.81;82.63
51617;BME280;37697;52.588;13.394;2023-04-09T10:45:59;102267.59;;;8.03;82.37
51617;BME280;37697;52.588;13.394;2023-04-09T10:51:05;102270.66;;;8.07;81.81
51617;BME280;37697;52.588;13.394;2023-04-09T10:56:16;102266.67;;;8.11;80.83
51617;BME280;37697;52.588;13.394;2023-04-09T11:01:22;102266.19;;;8.18;80.68
51617;BME280;37697;52.588;13.394;2023-04-09T11:06:28;102258.91;;;8.47;80.73
51617;BME280;37697;52.588;13.394;2023-04-09T11:11:35;102260.42;;;8.46;79.40
51617;BME280;37697;52.588;13.394;2023-04-09T11:16:41;102254.20;;;8.48;79.50
51617;BME280;37697;52.588;13.394;2023-04-09T11:21:47;102255.67;;;8.71;79.82
51617;BME280;37697;52.588;13.394;2023-04-09T11:26:54;102250.38;;;8.94;79.37
51617;BME280;37697;52.588;13.394;2023-04-09T11:32:01;102250.61;;;9.27;79.42
51617;BME280;37697;52.588;13.394;2023-04-09T11:37:06;102251.55;;;9.42;78.08
51617;BME280;37697;52.588;13.394;2023-04-09T11:42:18;102253.20;;;9.48;77.43
51617;BME280;37697;52.588;13.394;2023-04-09T11:47:23;102242.20;;;9.76;77.07
51617;BME280;37697;52.588;13.394;2023-04-09T11:52:29;102236.98;;;9.84;76.23
51617;BME280;37697;52.588;13.394;2023-04-09T11:57:44;102232.41;;;10.04;76.63
51617;BME280;37697;52.588;13.394;2023-04-09T12:02:51;102227.87;;;10.44;75.78
51617;BME280;37697;52.588;13.394;2023-04-09T12:08:04;102224.60;;;10.80;75.25
51617;BME280;37697;52.588;13.394;2023-04-09T12:13:11;102220.56;;;10.92;74.70
51617;BME280;37697;52.588;13.394;2023-04-09T12:18:20;102218.13;;;11.22;74.90
51617;BME280;37697;52.588;13.394;2023-04-09T12:23:25;102220.30;;;11.56;74.38
51617;BME280;37697;52.588;13.394;2023-04-09T12:28:31;102217.39;;;11.70;73.16
51617;BME280;37697;52.588;13.394;2023-04-09T12:33:36;102218.34;;;11.88;72.74
51617;BME280;37697;52.588;13.394;2023-04-09T12:38:43;102216.91;;;11.92;72.58
51617;BME280;37697;52.588;13.394;2023-04-09T12:43:48;102210.16;;;12.16;71.59
51617;BME280;37697;52.588;13.394;2023-04-09T12:48:54;102203.52;;;12.25;70.23
51617;BME280;37697;52.588;13.394;2023-04-09T12:53:59;102201.23;;;12.12;69.71
51617;BME280;37697;52.588;13.394;2023-04-09T12:59:08;102193.88;;;12.13;70.74
51617;BME280;37697;52.588;13.394;2023-04-09T13:04:13;102190.36;;;12.29;69.50
51617;BME280;37697;52.588;13.394;2023-04-09T13:09:19;102185.06;;;12.29;70.10
51617;BME280;37697;52.588;13.394;2023-04-09T13:14:25;102182.51;;;12.56;69.18
51617;BME280;37697;52.588;13.394;2023-04-09T13:19:30;102175.67;;;12.77;69.10
51617;BME280;37697;52.588;13.394;2023-04-09T13:24:36;102178.46;;;12.84;68.69
51617;BME280;37697;52.588;13.394;2023-04-09T13:29:42;102173.63;;;12.86;68.96
51617;BME280;37697;52.588;13.394;2023-04-09T13:34:47;102166.77;;;13.00;68.72
51617;BME280;37697;52.588;13.394;2023-04-09T13:39:53;102166.08;;;12.93;67.85
51617;BME280;37697;52.588;13.394;2023-04-09T13:44:59;102156.01;;;12.74;67.48
51617;BME280;37697;52.588;13.394;2023-04-09T13:50:07;102153.54;;;12.92;68.23
51617;BME280;37697;52.588;13.394;2023-04-09T13:55:14;102151.71;;;12.95;67.34
51617;BME280;37697;52.588;13.394;2023-04-09T14:00:19;102146.47;;;13.01;67.51
51617;BME280;37697;52.588;13.394;2023-04-09T14:05:25;102146.95;;;13.04;67.48
51617;BME280;37697;52.588;13.394;2023-04-09T14:10:30;102142.23;;;13.04;66.77
51617;BME280;37697;52.588;13.394;2023-04-09T14:15:36;102138.36;;;12.94;66.42
51617;BME280;37697;52.588;13.394;2023-04-09T14:20:41;102136.57;;;12.81;66.40
51617;BME280;37697;52.588;13.394;2023-04-09T14:25:47;102137.55;;;12.84;66.66
51617;BME280;37697;52.588;13.394;2023-04-09T14:30:52;102129.51;;;12.88;66.59
51617;BME280;37697;52.588;13.394;2023-04-09T14:35:58;102124.05;;;12.82;66.31
51617;BME280;37697;52.588;13.394;2023-04-09T14:41:04;102125.27;;;12.75;65.92
51617;BME280;37697;52.588;13.394;2023-04-09T14:46:10;102117.67;;;12.67;65.83
51617;BME280;37697;52.588;13.394;2023-04-09T14:51:16;102112.13;;;12.60;66.28
51617;BME280;37697;52.588;13.394;2023-04-09T14:56:21;102109.14;;;12.49;66.20
51617;BME280;37697;52.588;13.394;2023-04-09T15:01:27;102104.11;;;12.49;66.48
51617;BME280;37697;52.588;13.394;2023-04-09T15:06:33;102099.10;;;12.58;66.14
51617;BME280;37697;52.588;13.394;2023-04-09T15:11:38;102102.58;;;12.58;65.63
51617;BME280;37697;52.588;13.394;2023-04-09T15:16:44;102103.77;;;12.49;65.84
51617;BME280;37697;52.588;13.394;2023-04-09T15:21:49;102103.27;;;12.39;65.56
51617;BME280;37697;52.588;13.394;2023-04-09T15:26:55;102099.30;;;12.37;65.82
51617;BME280;37697;52.588;13.394;2023-04-09T15:32:01;102102.48;;;12.38;65.43
51617;BME280;37697;52.588;13.394;2023-04-09T15:37:06;102097.15;;;12.36;65.00
51617;BME280;37697;52.588;13.394;2023-04-09T15:42:12;102098.15;;;12.48;64.75
51617;BME280;37697;52.588;13.394;2023-04-09T15:47:19;102095.81;;;12.36;64.48
51617;BME280;37697;52.588;13.394;2023-04-09T15:52:24;102087.56;;;12.29;64.86
51617;BME280;37697;52.588;13.394;2023-04-09T15:57:30;102094.11;;;12.36;64.53
51617;BME280;37697;52.588;13.394;2023-04-09T16:02:36;102096.16;;;12.35;64.19
51617;BME280;37697;52.588;13.394;2023-04-09T16:07:43;102095.20;;;12.26;64.16
51617;BME280;37697;52.588;13.394;2023-04-09T16:12:48;102095.82;;;12.21;64.22
51617;BME280;37697;52.588;13.394;2023-04-09T16:17:53;102096.77;;;12.18;64.34
51617;BME280;37697;52.588;13.394;2023-04-09T16:22:59;102098.38;;;12.15;64.17
51617;BME280;37697;52.588;13.394;2023-04-09T16:28:05;102100.34;;;12.03;64.10
51617;BME280;37697;52.588;13.394;2023-04-09T16:33:11;102100.41;;;11.97;64.42
51617;BME280;37697;52.588;13.394;2023-04-09T16:38:16;102098.21;;;11.92;64.66
51617;BME280;37697;52.588;13.394;2023-04-09T16:43:22;102103.23;;;11.80;64.48
51617;BME280;37697;52.588;13.394;2023-04-09T16:48:28;102099.60;;;11.69;64.80
51617;BME280;37697;52.588;13.394;2023-04-09T16:53:33;102095.42;;;11.58;65.07
51617;BME280;37697;52.588;13.394;2023-04-09T16:58:43;102098.58;;;11.48;65.02
51617;BME280;37697;52.588;13.394;2023-04-09T17:03:50;102094.27;;;11.28;65.25
51617;BME280;37697;52.588;13.394;2023-04-09T17:08:55;102095.20;;;11.15;65.77
51617;BME280;37697;52.588;13.394;2023-04-09T17:14:01;102091.77;;;11.11;66.10
51617;BME280;37697;52.588;13.394;2023-04-09T17:19:07;102092.24;;;11.04;66.25
51617;BME280;37697;52.588;13.394;2023-04-09T17:24:13;102097.31;;;10.97;66.48
51617;BME280;37697;52.588;13.394;2023-04-09T17:29:18;102100.89;;;10.89;66.75
51617;BME280;37697;52.588;13.394;2023-04-09T17:34:23;102102.23;;;10.77;66.71
51617;BME280;37697;52.588;13.394;2023-04-09T17:39:29;102103.30;;;10.67;66.94
51617;BME280;37697;52.588;13.394;2023-04-09T17:44:34;102107.91;;;10.49;66.85
51617;BME280;37697;52.588;13.394;2023-04-09T17:49:40;102102.16;;;10.23;66.91
51617;BME280;37697;52.588;13.394;2023-04-09T17:54:45;102101.89;;;10.03;67.41
51617;BME280;37697;52.588;13.394;2023-04-09T17:59:51;102103.96;;;9.91;67.72
51617;BME280;37697;52.588;13.394;2023-04-09T18:04:58;102103.53;;;9.75;67.98
51617;BME280;37697;52.588;13.394;2023-04-09T18:10:08;102104.10;;;9.62;68.19
51617;BME280;37697;52.588;13.394;2023-04-09T18:15:13;102103.19;;;9.51;68.36
51617;BME280;37697;52.588;13.394;2023-04-09T18:20:20;102102.86;;;9.39;68.56
51617;BME280;37697;52.588;13.394;2023-04-09T18:25:25;102104.02;;;9.25;68.45
51617;BME280;37697;52.588;13.394;2023-04-09T18:30:32;102102.00;;;9.10;68.53
51617;BME280;37697;52.588;13.394;2023-04-09T18:35:40;102105.93;;;8.96;68.74
51617;BME280;37697;52.588;13.394;2023-04-09T18:40:45;102112.69;;;8.80;68.83
51617;BME280;37697;52.588;13.394;2023-04-09T18:45:51;102118.13;;;8.62;69.32
51617;BME280;37697;52.588;13.394;2023-04-09T18:50:56;102122.62;;;8.47;69.52
51617;BME280;37697;52.588;13.394;2023-04-09T18:56:03;102126.70;;;8.33;69.48
51617;BME280;37697;52.588;13.394;2023-04-09T19:01:12;102130.85;;;8.16;69.98
51617;BME280;37697;52.588;13.394;2023-04-09T19:06:18;102132.09;;;8.03;69.94
51617;BME280;37697;52.588;13.394;2023-04-09T19:11:24;102133.77;;;7.90;70.01
51617;BME280;37697;52.588;13.394;2023-04-09T19:16:30;102134.61;;;7.76;70.14
51617;BME280;37697;52.588;13.394;2023-04-09T19:21:35;102147.29;;;7.60;70.31
51617;BME280;37697;52.588;13.394;2023-04-09T19:26:41;102153.35;;;7.45;70.61
51617;BME280;37697;52.588;13.394;2023-04-09T19:31:46;102149.96;;;7.21;70.62
51617;BME280;37697;52.588;13.394;2023-04-09T19:36:52;102145.55;;;7.04;71.15
51617;BME280;37697;52.588;13.394;2023-04-09T19:41:57;102151.36;;;6.93;71.25
51617;BME280;37697;52.588;13.394;2023-04-09T19:47:05;102151.33;;;6.85;71.53
51617;BME280;37697;52.588;13.394;2023-04-09T19:52:11;102143.85;;;6.81;71.77
51617;BME280;37697;52.588;13.394;2023-04-09T19:57:16;102150.27;;;6.74;71.88
51617;BME280;37697;52.588;13.394;2023-04-09T20:02:21;102149.82;;;6.57;71.76
51617;BME280;37697;52.588;13.394;2023-04-09T20:07:28;102152.66;;;6.36;72.05
51617;BME280;37697;52.588;13.394;2023-04-09T20:12:54;102150.91;;;6.26;72.25
51617;BME280;37697;52.588;13.394;2023-04-09T20:18:18;102150.20;;;6.11;72.41
51617;BME280;37697;52.588;13.394;2023-04-09T20:23:44;102150.42;;;6.01;72.58
51617;BME280;37697;52.588;13.394;2023-04-09T20:29:10;102159.27;;;5.89;72.82
51617;BME280;37697;52.588;13.394;2023-04-09T20:34:35;102159.27;;;5.75;72.81
51617;BME280;37697;52.588;13.394;2023-04-09T20:39:53;102158.65;;;5.63;73.01
51617;BME280;37697;52.588;13.394;2023-04-09T20:45:12;102154.47;;;5.48;73.29
51617;BME280;37697;52.588;13.394;2023-04-09T20:50:38;102148.42;;;5.43;73.47
51617;BME280;37697;52.588;13.394;2023-04-09T20:56:12;102140.95;;;5.37;73.66
51617;BME280;37697;52.588;13.394;2023-04-09T21:01:38;102144.44;;;5.30;73.57
51617;BME280;37697;52.588;13.394;2023-04-09T21:07:04;102148.69;;;5.15;73.39
51617;BME280;37697;52.588;13.394;2023-04-09T21:12:30;102145.38;;;4.83;73.70
51617;BME280;37697;52.588;13.394;2023-04-09T21:17:55;102144.31;;;4.78;74.33
51617;BME280;37697;52.588;13.394;2023-04-09T21:23:21;102142.40;;;4.73;74.45
51617;BME280;37697;52.588;13.394;2023-04-09T21:28:47;102135.71;;;4.68;74.22
51617;BME280;37697;52.588;13.394;2023-04-09T21:34:13;102127.67;;;4.63;74.54
51617;BME280;37697;52.588;13.394;2023-04-09T21:39:38;102128.48;;;4.59;74.61
51617;BME280;37697;52.588;13.394;2023-04-09T21:45:05;102126.31;;;4.46;74.30
51617;BME280;37697;52.588;13.394;2023-04-09T21:50:23;102127.66;;;4.32;74.66
51617;BME280;37697;52.588;13.394;2023-04-09T21:55:49;102131.91;;;4.25;74.94
51617;BME280;37697;52.588;13.394;2023-04-09T22:01:15;102139.64;;;4.21;74.89
51617;BME280;37697;52.588;13.394;2023-04-09T22:06:41;102141.11;;;4.07;74.97
51617;BME280;37697;52.588;13.394;2023-04-09T22:12:09;102139.64;;;3.99;75.16
51617;BME280;37697;52.588;13.394;2023-04-09T22:17:35;102140.36;;;3.93;75.41
51617;BME280;37697;52.588;13.394;2023-04-09T22:23:00;102144.06;;;3.87;75.42
51617;BME280;37697;52.588;13.394;2023-04-09T22:28:26;102147.58;;;3.80;75.46
51617;BME280;37697;52.588;13.394;2023-04-09T22:33:52;102147.71;;;3.73;75.44
51617;BME280;37697;52.588;13.394;2023-04-09T22:39:25;102144.84;;;3.66;75.56
51617;BME280;37697;52.588;13.394;2023-04-09T22:44:43;102146.88;;;3.58;75.45
51617;BME280;37697;52.588;13.394;2023-04-09T22:50:10;102150.38;;;3.45;75.63
51617;BME280;37697;52.588;13.394;2023-04-09T22:55:36;102163.09;;;3.36;75.94
51617;BME280;37697;52.588;13.394;2023-04-09T23:01:01;102163.89;;;3.31;75.77
51617;BME280;37697;52.588;13.394;2023-04-09T23:06:26;102158.34;;;3.26;75.95
51617;BME280;37697;52.588;13.394;2023-04-09T23:11:52;102153.48;;;3.21;75.90
51617;BME280;37697;52.588;13.394;2023-04-09T23:17:17;102148.36;;;3.15;76.02
51617;BME280;37697;52.588;13.394;2023-04-09T23:22:44;102149.34;;;2.98;76.13
51617;BME280;37697;52.588;13.394;2023-04-09T23:28:09;102151.73;;;2.82;76.34
51617;BME280;37697;52.588;13.394;2023-04-09T23:33:35;102154.23;;;2.77;76.50
51617;BME280;37697;52.588;13.394;2023-04-09T23:39:01;102153.70;;;2.76;76.88
51617;BME280;37697;52.588;13.394;2023-04-09T23:44:26;102144.86;;;2.73;76.99
51617;BME280;37697;52.588;13.394;2023-04-09T23:49:52;102147.88;;;2.72;77.04
51617;BME280;37697;52.588;13.394;2023-04-09T23:55:18;102141.59;;;2.68;77.06
